Time;durP1;ratioP1;P1;durP2;ratioP2;P2;SDS_P1;SDS_P2;PMS_P1;PMS_P2;Temp;Humidity;BMP_temperature;BMP_pressure;BME280_temperature;BME280_humidity;BME280_pressure;Samples;Min_cycle;Max_cycle;Signal;HPM_P1;HPM_P2
2021/06/04 00:02:22;;;;;;;8.38;3.78;;;;;;;14.47;48.52;100623.09;4975629;28;20097;-51
2021/06/04 00:04:48;;;;;;;11.30;4.55;;;;;;;14.56;48.54;100612.50;4974724;28;20494;-49
2021/06/04 00:07:13;;;;;;;7.60;4.00;;;;;;;14.53;48.63;100619.00;4974398;28;20046;-45
2021/06/04 00:09:39;;;;;;;5.38;3.65;;;;;;;14.51;48.95;100637.16;4974469;28;20034;-45
2021/06/04 00:12:05;;;;;;;8.77;3.88;;;;;;;14.46;49.09;100645.59;4970924;28;20038;-47
2021/06/04 00:14:39;;;;;;;8.02;3.58;;;;;;;14.45;49.40;100643.91;4972453;28;20445;-46
2021/06/04 00:17:12;;;;;;;9.10;4.22;;;;;;;14.31;49.11;100625.38;4987206;28;20034;-52
2021/06/04 00:19:38;;;;;;;11.13;4.35;;;;;;;14.44;48.92;100646.75;4973834;28;20118;-51
2021/06/04 00:22:14;;;;;;;6.05;4.10;;;;;;;14.56;48.52;100609.81;4973794;28;20114;-52
2021/06/04 00:24:42;;;;;;;7.40;4.30;;;;;;;14.75;48.52;100636.94;4974340;28;20097;-47
2021/06/04 00:27:09;;;;;;;9.48;3.97;;;;;;;14.48;48.68;100632.03;4974310;28;20039;-48
2021/06/04 00:29:35;;;;;;;7.07;4.10;;;;;;;14.54;48.62;100625.28;4973979;28;20039;-47
2021/06/04 00:32:01;;;;;;;7.30;4.20;;;;;;;14.65;48.38;100644.06;4973575;28;20045;-51
2021/06/04 00:34:26;;;;;;;8.75;4.32;;;;;;;14.62;48.50;100633.53;4973961;28;20457;-50
2021/06/04 00:36:54;;;;;;;10.20;3.70;;;;;;;14.43;48.75;100634.25;4974292;28;20038;-52
2021/06/04 00:39:24;;;;;;;9.15;4.18;;;;;;;14.52;49.24;100646.09;4974220;28;20122;-49
2021/06/04 00:42:06;;;;;;;7.00;3.97;;;;;;;14.54;48.92;100644.97;4981415;28;20030;-47
2021/06/04 00:44:34;;;;;;;7.80;3.45;;;;;;;14.41;48.92;100649.69;4974269;28;20406;-51
2021/06/04 00:47:00;;;;;;;9.90;3.90;;;;;;;14.33;49.15;100644.94;4973954;28;20065;-48
2021/06/04 00:49:26;;;;;;;6.28;3.70;;;;;;;14.37;49.16;100657.16;4972424;28;20149;-49
2021/06/04 00:51:59;;;;;;;7.00;3.50;;;;;;;14.10;49.12;100604.63;4973604;28;20043;-51
2021/06/04 00:54:25;;;;;;;7.63;3.63;;;;;;;14.40;48.96;100646.13;4973609;28;20034;-52
2021/06/04 00:56:52;;;;;;;5.28;3.42;;;;;;;14.22;49.26;100648.53;4985396;28;20069;-49
2021/06/04 00:59:26;;;;;;;9.10;4.03;;;;;;;14.16;49.63;100654.44;4992691;28;20084;-52
2021/06/04 01:01:52;;;;;;;9.77;3.58;;;;;;;14.32;49.40;100673.72;4983407;28;20042;-50
2021/06/04 01:04:20;;;;;;;8.02;4.13;;;;;;;14.19;49.36;100657.72;4973589;28;20050;-48
2021/06/04 01:07:12;;;;;;;6.93;3.75;;;;;;;14.39;49.22;100667.84;4973200;28;20104;-51
2021/06/04 01:09:44;;;;;;;6.32;3.30;;;;;;;14.34;49.14;100677.13;4972557;28;20058;-49
2021/06/04 01:12:25;;;;;;;5.20;3.60;;;;;;;14.38;49.06;100672.34;4972008;28;20031;-49
2021/06/04 01:15:27;;;;;;;6.78;3.22;;;;;;;14.38;48.89;100669.66;4970406;28;20042;-50
2021/06/04 01:18:25;;;;;;;10.10;3.65;;;;;;;14.40;49.07;100681.16;4971122;28;20121;-48
2021/06/04 01:20:55;;;;;;;8.25;3.70;;;;;;;14.14;49.54;100673.41;4970924;28;20065;-52
2021/06/04 01:24:22;;;;;;;10.20;3.40;;;;;;;14.10;49.71;100671.94;4970430;28;20070;-50
2021/06/04 01:26:53;;;;;;;6.47;3.40;;;;;;;14.10;49.94;100680.03;4952448;28;20158;-48
2021/06/04 01:29:40;;;;;;;6.90;3.70;;;;;;;14.09;49.43;100691.78;4967592;28;20130;-53
2021/06/04 01:32:19;;;;;;;6.10;3.40;;;;;;;14.07;49.91;100693.75;4970874;28;20067;-47
2021/06/04 01:34:52;;;;;;;3.67;3.30;;;;;;;13.98;50.14;100686.41;4968956;28;20043;-50
2021/06/04 01:37:22;;;;;;;5.20;3.45;;;;;;;13.96;50.10;100672.22;4970752;28;20062;-50
2021/06/04 01:39:53;;;;;;;6.72;3.25;;;;;;;13.99;50.17;100688.13;4971027;28;20034;-49
2021/06/04 01:42:26;;;;;;;5.43;3.42;;;;;;;14.04;50.02;100678.69;4970683;28;20566;-50
2021/06/04 01:45:24;;;;;;;5.63;3.30;;;;;;;14.06;49.65;100692.03;4967419;28;20031;-49
2021/06/04 01:47:54;;;;;;;8.35;3.50;;;;;;;13.56;49.96;100628.72;4970844;28;20273;-50
2021/06/04 01:50:33;;;;;;;5.43;3.35;;;;;;;13.91;50.19;100694.13;4970988;28;20173;-51
2021/06/04 01:53:06;;;;;;;7.72;3.03;;;;;;;13.93;49.68;100690.31;4970512;28;20092;-52
2021/06/04 01:55:36;;;;;;;5.28;3.25;;;;;;;13.95;49.82;100689.34;4970176;28;20427;-51
2021/06/04 01:58:10;;;;;;;7.10;3.30;;;;;;;14.07;49.73;100694.59;4970752;28;20125;-50
2021/06/04 02:00:50;;;;;;;7.90;3.80;;;;;;;13.93;50.05;100676.88;4967842;28;20105;-50
2021/06/04 02:03:21;;;;;;;4.93;2.75;;;;;;;13.97;50.20;100695.44;4966207;28;20085;-50
2021/06/04 02:05:49;;;;;;;8.23;3.67;;;;;;;14.01;49.87;100694.25;4969656;28;20122;-52
2021/06/04 02:08:19;;;;;;;5.68;3.20;;;;;;;14.17;49.48;100685.78;4972609;28;20070;-52
2021/06/04 02:10:48;;;;;;;9.57;3.28;;;;;;;13.72;49.40;100608.63;4971767;28;20466;-50
2021/06/04 02:13:14;;;;;;;4.90;3.25;;;;;;;14.20;48.71;100655.88;4972045;28;20039;-50
2021/06/04 02:15:47;;;;;;;10.32;2.95;;;;;;;14.58;48.53;100703.00;4969006;28;20506;-54
2021/06/04 02:18:24;;;;;;;6.15;2.60;;;;;;;14.76;47.96;100699.78;4967620;28;20031;-49
2021/06/04 02:21:13;;;;;;;4.18;3.25;;;;;;;15.04;47.33;100695.59;4968350;28;20073;-54
2021/06/04 02:24:06;;;;;;;8.55;3.33;;;;;;;15.25;47.01;100702.84;4968060;28;20037;-49
2021/06/04 02:26:44;;;;;;;4.80;3.20;;;;;;;15.39;46.65;100689.97;4969832;28;20077;-49
2021/06/04 02:29:20;;;;;;;7.57;3.00;;;;;;;15.69;45.73;100699.91;4969717;28;20469;-52
2021/06/04 02:32:11;;;;;;;7.70;2.85;;;;;;;16.13;44.57;100693.41;4966365;28;20257;-52
2021/06/04 02:34:46;;;;;;;6.90;2.97;;;;;;;16.44;43.93;100694.19;4945626;28;20039;-54
2021/06/04 02:37:19;;;;;;;6.13;3.30;;;;;;;16.74;43.18;100704.97;4963717;28;20415;-47
2021/06/04 02:39:54;;;;;;;5.43;2.90;;;;;;;16.86;42.64;100693.03;4969456;28;20034;-50
2021/06/04 02:42:28;;;;;;;9.15;3.20;;;;;;;16.96;42.16;100694.84;4969665;28;20387;-50
2021/06/04 02:44:57;;;;;;;8.18;3.00;;;;;;;17.04;42.00;100713.97;4967197;28;20042;-50
2021/06/04 02:47:36;;;;;;;4.20;3.10;;;;;;;17.12;41.71;100707.81;4967221;28;20905;-51
2021/06/04 02:50:09;;;;;;;7.55;3.38;;;;;;;16.87;42.29;100707.38;4968965;28;20097;-49
2021/06/04 02:52:41;;;;;;;7.13;3.03;;;;;;;16.77;42.07;100702.00;4968821;28;20454;-47
2021/06/04 02:55:31;;;;;;;8.93;3.38;;;;;;;16.58;42.95;100703.72;4969113;28;20035;-51
2021/06/04 02:57:57;;;;;;;4.38;2.90;;;;;;;16.19;42.86;100649.63;4968662;28;20058;-53
2021/06/04 03:00:26;;;;;;;4.75;3.05;;;;;;;16.57;42.90;100707.41;4968995;28;20816;-47
2021/06/04 03:02:52;;;;;;;7.65;2.58;;;;;;;16.84;42.52;100704.97;4967979;28;20039;-52
2021/06/04 03:05:24;;;;;;;10.05;3.20;;;;;;;17.23;41.84;100715.78;4966980;28;20446;-47
2021/06/04 03:07:49;;;;;;;5.32;2.88;;;;;;;17.82;40.73;100706.63;4969196;28;20043;-51
2021/06/04 03:10:38;;;;;;;6.13;2.90;;;;;;;18.32;39.81;100703.50;4968628;28;20066;-50
2021/06/04 03:13:06;;;;;;;4.60;2.80;;;;;;;18.67;38.54;100705.53;4969441;28;20043;-52
2021/06/04 03:15:47;;;;;;;4.07;2.50;;;;;;;19.13;37.48;100700.84;4967863;28;20486;-54
2021/06/04 03:18:20;;;;;;;8.02;2.40;;;;;;;19.53;36.57;100701.28;4968342;28;20047;-51
2021/06/04 03:20:48;;;;;;;5.05;2.47;;;;;;;19.86;35.84;100700.59;4966027;28;20053;-50
2021/06/04 03:23:18;;;;;;;7.18;2.50;;;;;;;20.28;34.96;100698.91;4968951;28;20043;-47
2021/06/04 03:25:47;;;;;;;4.95;3.28;;;;;;;20.73;34.30;100715.78;4969778;28;20434;-50
2021/06/04 03:28:16;;;;;;;3.25;2.60;;;;;;;20.99;33.37;100702.06;4968803;28;20126;-52
2021/06/04 03:30:45;;;;;;;7.75;2.97;;;;;;;21.19;32.93;100704.41;4969405;28;20066;-49
2021/06/04 03:33:18;;;;;;;5.78;2.42;;;;;;;21.48;32.76;100697.56;4969159;28;20585;-52
2021/06/04 03:35:45;;;;;;;6.00;2.80;;;;;;;21.85;32.45;100677.00;4970332;28;20038;-54
2021/06/04 03:38:14;;;;;;;5.38;2.40;;;;;;;22.51;31.15;100716.72;4970418;28;20046;-50
2021/06/04 03:40:40;;;;;;;4.28;2.47;;;;;;;22.98;30.17;100703.06;4970360;28;20149;-48
2021/06/04 03:43:10;;;;;;;4.28;2.47;;;;;;;23.22;29.73;100707.44;4971041;28;20129;-54
2021/06/04 03:45:40;;;;;;;4.95;2.42;;;;;;;23.47;28.89;100704.50;4969859;28;20131;-48
2021/06/04 03:48:07;;;;;;;5.28;2.22;;;;;;;23.70;28.48;100703.56;4969941;28;20125;-53
2021/06/04 03:50:34;;;;;;;8.77;2.42;;;;;;;24.06;28.19;100689.97;4971019;28;20061;-50
2021/06/04 03:53:00;;;;;;;3.15;2.40;;;;;;;24.72;27.16;100696.34;4971001;28;20109;-47
2021/06/04 03:55:27;;;;;;;4.95;2.17;;;;;;;25.16;26.04;100690.84;4966348;28;20034;-50
2021/06/04 03:57:54;;;;;;;4.70;2.03;;;;;;;25.49;25.13;100673.78;4968264;28;20150;-46
2021/06/04 04:00:32;;;;;;;2.92;1.90;;;;;;;26.02;24.59;100700.63;4969641;28;20398;-48
2021/06/04 04:02:58;;;;;;;6.72;2.03;;;;;;;26.22;24.08;100687.00;4970730;28;20486;-54
2021/06/04 04:05:24;;;;;;;5.80;2.17;;;;;;;26.16;23.61;100696.06;4970598;28;20117;-50
2021/06/04 04:07:50;;;;;;;3.53;2.10;;;;;;;26.10;23.75;100669.41;4970479;28;20122;-52
2021/06/04 04:10:17;;;;;;;2.88;1.95;;;;;;;26.55;23.36;100684.56;4969785;28;20091;-49
2021/06/04 04:12:43;;;;;;;7.10;2.33;;;;;;;27.04;23.11;100690.72;4970213;28;20133;-52
2021/06/04 04:15:17;;;;;;;6.05;2.03;;;;;;;27.58;22.22;100636.50;4970241;28;20578;-49
2021/06/04 04:17:43;;;;;;;3.17;2.50;;;;;;;28.31;20.92;100677.69;4970358;28;20080;-50
2021/06/04 04:20:10;;;;;;;6.25;2.13;;;;;;;28.90;20.85;100660.94;4969592;28;20035;-51
2021/06/04 04:22:37;;;;;;;5.43;2.00;;;;;;;29.64;19.66;100687.81;4970801;28;20364;-52
2021/06/04 04:25:04;;;;;;;5.38;2.35;;;;;;;30.18;19.27;100678.88;4970685;28;20042;-51
2021/06/04 04:27:30;;;;;;;6.10;2.10;;;;;;;30.62;18.33;100610.44;4969947;28;20085;-53
2021/06/04 04:29:56;;;;;;;8.73;2.08;;;;;;;31.03;17.81;100612.50;4970552;28;20109;-51
2021/06/04 04:32:21;;;;;;;6.93;1.83;;;;;;;31.89;17.57;100670.00;4970508;28;20039;-53
2021/06/04 04:34:47;;;;;;;4.55;1.75;;;;;;;32.63;16.82;100667.50;4970202;28;20039;-47
2021/06/04 04:37:13;;;;;;;6.15;2.53;;;;;;;33.62;15.76;100678.16;4970448;28;20101;-49
2021/06/04 04:39:42;;;;;;;5.50;1.80;;;;;;;34.02;14.78;100613.13;4969779;28;20045;-53
2021/06/04 04:42:10;;;;;;;6.97;1.75;;;;;;;34.46;14.07;100675.25;4970002;28;20458;-56
2021/06/04 04:44:37;;;;;;;3.95;1.73;;;;;;;34.84;14.04;100620.50;4972592;28;20039;-51
2021/06/04 04:47:07;;;;;;;5.97;1.88;;;;;;;35.48;13.51;100674.34;4974208;28;20395;-51
2021/06/04 04:49:33;;;;;;;6.05;2.03;;;;;;;35.54;13.04;100661.31;4973599;28;20104;-51
2021/06/04 04:51:58;;;;;;;7.63;1.45;;;;;;;35.43;13.45;100612.22;4973868;28;20050;-53
2021/06/04 04:54:24;;;;;;;5.82;1.65;;;;;;;36.14;13.04;100665.72;4973510;28;20043;-55
2021/06/04 04:56:50;;;;;;;3.20;1.83;;;;;;;36.46;12.57;100659.91;4973442;28;20085;-52
2021/06/04 04:59:16;;;;;;;6.10;1.60;;;;;;;36.25;12.99;100666.59;4973892;28;20426;-51
2021/06/04 05:01:41;;;;;;;3.65;1.40;;;;;;;36.76;12.47;100666.63;4974007;28;20038;-50
2021/06/04 05:04:07;;;;;;;2.10;1.63;;;;;;;36.56;11.90;100649.91;4973777;28;20042;-53
2021/06/04 05:06:35;;;;;;;4.32;1.73;;;;;;;37.05;11.94;100665.22;4973831;28;20035;-55
2021/06/04 05:09:06;;;;;;;4.68;1.50;;;;;;;37.34;11.32;100684.97;4974006;28;20100;-51
2021/06/04 05:11:32;;;;;;;3.58;1.52;;;;;;;36.65;11.83;100644.59;4974335;28;20038;-49
2021/06/04 05:13:57;;;;;;;4.80;1.50;;;;;;;36.90;11.74;100652.13;4973967;28;20089;-53
2021/06/04 05:16:23;;;;;;;4.97;1.60;;;;;;;36.71;11.43;100663.00;4973807;28;20084;-50
2021/06/04 05:18:49;;;;;;;7.45;2.25;;;;;;;36.28;12.01;100658.47;4989041;28;20130;-55
2021/06/04 05:21:16;;;;;;;3.95;1.92;;;;;;;36.59;12.03;100660.50;4973813;28;20176;-52
2021/06/04 05:23:42;;;;;;;2.70;1.70;;;;;;;37.10;11.51;100656.84;4973408;28;20131;-56
2021/06/04 05:26:08;;;;;;;5.10;1.70;;;;;;;37.52;11.00;100665.94;4972263;28;20039;-51
2021/06/04 05:28:34;;;;;;;4.15;1.55;;;;;;;38.25;10.79;100666.44;4973662;28;20039;-51
2021/06/04 05:31:04;;;;;;;4.32;2.17;;;;;;;38.52;10.17;100669.88;4973639;28;21123;-53
2021/06/04 05:33:33;;;;;;;4.03;1.90;;;;;;;38.86;10.24;100674.63;4971843;28;20045;-54
2021/06/04 05:36:09;;;;;;;2.58;1.92;;;;;;;39.03;9.79;100665.81;4973357;28;20043;-51
2021/06/04 05:38:35;;;;;;;4.93;2.17;;;;;;;39.97;9.81;100672.00;4973629;28;20117;-60
2021/06/04 05:41:03;;;;;;;5.38;1.92;;;;;;;41.00;8.89;100675.13;4973052;28;20039;-51
2021/06/04 05:43:33;;;;;;;4.40;2.55;;;;;;;40.77;8.54;100670.50;4972609;28;20047;-52
2021/06/04 05:45:59;;;;;;;4.93;1.77;;;;;;;40.77;8.69;100670.50;4972388;28;20360;-55
2021/06/04 05:48:25;;;;;;;5.15;2.05;;;;;;;40.63;8.38;100660.03;4971584;28;20418;-51
2021/06/04 05:50:56;;;;;;;3.88;1.80;;;;;;;41.44;8.03;100663.59;4973437;28;20085;-53
2021/06/04 05:53:27;;;;;;;3.30;2.15;;;;;;;42.34;7.61;100664.19;4972502;28;20055;-56
2021/06/04 05:55:54;;;;;;;5.70;2.25;;;;;;;42.45;7.33;100660.00;4971356;28;20058;-57
2021/06/04 05:58:20;;;;;;;5.00;2.05;;;;;;;42.83;7.19;100658.72;4971731;28;20483;-52
2021/06/04 06:00:55;;;;;;;5.35;2.30;;;;;;;43.03;6.71;100665.78;4972061;28;20047;-57
2021/06/04 06:03:26;;;;;;;3.83;2.25;;;;;;;42.79;6.43;100655.72;4987807;28;20038;-51
2021/06/04 06:05:52;;;;;;;4.50;1.63;;;;;;;42.49;5.79;100654.56;4970728;28;20038;-54
2021/06/04 06:08:18;;;;;;;3.47;1.60;;;;;;;41.80;6.61;100637.56;4970873;28;20026;-56
2021/06/04 06:10:44;;;;;;;3.70;2.13;;;;;;;40.52;6.96;100655.75;4971106;28;20062;-54
2021/06/04 06:13:10;;;;;;;5.45;2.05;;;;;;;39.81;7.80;100632.13;4970864;28;20073;-55
2021/06/04 06:15:36;;;;;;;7.57;2.17;;;;;;;40.69;7.33;100650.38;4970894;28;20054;-55
2021/06/04 06:18:02;;;;;;;5.65;2.10;;;;;;;40.63;7.02;100637.59;4970889;28;20042;-54
2021/06/04 06:20:32;;;;;;;2.35;2.10;;;;;;;40.26;6.55;100658.94;4971006;28;20043;-52
2021/06/04 06:22:58;;;;;;;5.05;1.95;;;;;;;39.66;7.72;100654.75;4970888;28;20448;-52
2021/06/04 06:25:37;;;;;;;4.47;1.90;;;;;;;40.72;7.28;100646.16;4971060;28;20043;-53
2021/06/04 06:28:04;;;;;;;9.25;2.85;;;;;;;42.26;6.84;100640.47;4971214;28;20035;-54
2021/06/04 06:30:32;;;;;;;4.65;2.28;;;;;;;43.40;5.84;100651.53;4971690;28;20031;-53
2021/06/04 06:32:58;;;;;;;4.13;2.15;;;;;;;44.10;5.76;100654.47;4971500;28;20035;-56
2021/06/04 06:35:39;;;;;;;4.90;2.17;;;;;;;44.78;4.99;100657.91;4970625;28;20550;-50
2021/06/04 06:38:06;;;;;;;8.50;2.00;;;;;;;43.52;4.89;100648.94;4968776;28;20077;-48
2021/06/04 06:40:32;;;;;;;2.80;2.10;;;;;;;42.00;5.67;100587.63;4970860;28;20056;-51
2021/06/04 06:42:58;;;;;;;1.95;1.77;;;;;;;41.85;5.80;100642.25;4969397;28;20077;-53
2021/06/04 06:45:24;;;;;;;2.60;1.92;;;;;;;41.22;6.14;100642.69;4971270;28;20153;-54
2021/06/04 06:47:51;;;;;;;2.30;2.08;;;;;;;42.88;5.74;100662.28;4969428;28;20038;-55
2021/06/04 06:50:17;;;;;;;4.60;2.28;;;;;;;42.28;5.52;100638.16;4970119;28;20062;-50
2021/06/04 06:52:42;;;;;;;5.15;2.28;;;;;;;41.60;6.26;100625.63;4971243;28;20093;-52
2021/06/04 06:55:10;;;;;;;7.40;2.55;;;;;;;42.43;6.27;100648.19;4971210;28;20043;-53
2021/06/04 06:57:36;;;;;;;6.63;1.85;;;;;;;43.83;5.65;100636.72;4970610;28;20035;-52
2021/06/04 07:00:10;;;;;;;2.30;1.80;;;;;;;43.91;5.00;100656.81;4972220;28;20031;-53
2021/06/04 07:02:41;;;;;;;4.53;2.13;;;;;;;44.51;5.08;100645.81;4968096;28;20023;-50
2021/06/04 07:05:08;;;;;;;3.00;2.20;;;;;;;43.07;5.42;100657.53;4971773;28;20050;-51
2021/06/04 07:07:36;;;;;;;6.18;2.42;;;;;;;40.93;6.65;100643.81;4969819;28;20550;-52
2021/06/04 07:10:03;;;;;;;11.18;2.03;;;;;;;40.83;7.21;100658.03;4969111;28;20096;-51
2021/06/04 07:12:29;;;;;;;4.65;2.28;;;;;;;42.21;6.74;100637.78;4970447;28;20502;-52
2021/06/04 07:14:54;;;;;;;7.75;2.05;;;;;;;42.81;6.25;100610.34;4971818;28;20046;-49
2021/06/04 07:17:22;;;;;;;7.00;2.30;;;;;;;44.09;5.55;100641.53;4971345;28;20041;-51
2021/06/04 07:19:47;;;;;;;4.93;2.60;;;;;;;44.09;5.73;100630.25;4970316;28;20038;-54
2021/06/04 07:22:13;;;;;;;6.53;2.30;;;;;;;45.21;5.27;100628.66;4971160;28;20410;-51
2021/06/04 07:24:38;;;;;;;4.28;2.28;;;;;;;45.15;4.68;100624.38;4971281;28;20083;-55
2021/06/04 07:27:04;;;;;;;4.88;2.20;;;;;;;45.69;4.92;100637.03;4969904;28;20162;-51
2021/06/04 07:29:32;;;;;;;4.25;2.15;;;;;;;46.76;4.18;100649.06;4970074;28;20034;-50
2021/06/04 07:31:58;;;;;;;5.55;2.58;;;;;;;45.26;4.54;100641.78;4970552;28;20118;-54
2021/06/04 07:34:27;;;;;;;7.53;2.58;;;;;;;44.94;4.85;100639.28;4971389;28;20046;-51
2021/06/04 07:36:55;;;;;;;5.47;2.25;;;;;;;45.40;4.91;100638.75;4971063;28;20051;-52
2021/06/04 07:39:26;;;;;;;5.13;2.08;;;;;;;46.03;4.78;100640.78;4970059;28;20042;-50
2021/06/04 07:41:52;;;;;;;2.85;2.25;;;;;;;45.89;4.46;100628.94;4970045;28;20034;-51
2021/06/04 07:44:18;;;;;;;2.65;1.90;;;;;;;46.71;4.42;100622.63;4964807;28;20412;-56
2021/06/04 07:46:45;;;;;;;7.47;2.28;;;;;;;48.00;3.98;100646.22;4970666;28;20092;-58
2021/06/04 07:49:12;;;;;;;4.90;2.00;;;;;;;45.55;4.39;100629.63;4969786;28;20063;-51
2021/06/04 07:51:41;;;;;;;3.88;1.83;;;;;;;44.01;5.28;100622.63;4967740;28;20542;-56
2021/06/04 07:54:11;;;;;;;4.57;1.92;;;;;;;44.16;5.26;100641.91;4971066;28;20406;-51
2021/06/04 07:56:37;;;;;;;4.82;1.75;;;;;;;43.30;5.70;100628.16;4963695;28;20026;-50
2021/06/04 07:59:03;;;;;;;2.10;1.90;;;;;;;43.06;5.86;100591.94;4969058;28;20031;-54
2021/06/04 08:01:29;;;;;;;3.80;1.88;;;;;;;42.43;5.96;100617.25;4969688;28;20525;-50
2021/06/04 08:03:55;;;;;;;4.13;1.77;;;;;;;41.88;6.77;100628.38;4970231;28;20038;-52
2021/06/04 08:06:22;;;;;;;4.80;2.10;;;;;;;41.83;6.68;100616.41;4970362;28;20042;-53
2021/06/04 08:08:49;;;;;;;7.40;2.10;;;;;;;41.72;6.90;100596.13;4970122;28;20034;-57
2021/06/04 08:11:22;;;;;;;8.27;2.20;;;;;;;42.26;6.86;100615.16;4970403;28;20062;-54
2021/06/04 08:13:47;;;;;;;4.65;1.95;;;;;;;42.13;6.73;100600.81;4970229;28;20126;-56
2021/06/04 08:16:14;;;;;;;4.28;1.77;;;;;;;41.64;6.97;100610.94;4970065;28;20121;-49
2021/06/04 08:18:40;;;;;;;4.35;1.67;;;;;;;38.61;7.72;100559.03;4970359;28;20035;-57
2021/06/04 08:21:21;;;;;;;7.07;2.00;;;;;;;36.66;9.22;100616.44;4973727;28;20030;-55
2021/06/04 08:23:47;;;;;;;5.65;1.50;;;;;;;33.79;11.63;100597.59;4973515;28;20406;-50
2021/06/04 08:26:17;;;;;;;3.33;1.40;;;;;;;31.46;13.89;100607.66;4971664;28;20031;-49
2021/06/04 08:28:43;;;;;;;5.70;1.60;;;;;;;29.61;15.16;100555.84;4972604;28;20035;-52
2021/06/04 08:31:09;;;;;;;7.60;1.85;;;;;;;28.15;17.19;100602.78;4971942;28;20035;-51
2021/06/04 08:33:41;;;;;;;9.20;1.75;;;;;;;26.91;18.43;100603.66;4973985;28;20097;-48
2021/06/04 08:36:10;;;;;;;4.13;1.45;;;;;;;25.84;19.59;100598.84;4970879;28;20051;-50
2021/06/04 08:38:39;;;;;;;7.47;1.35;;;;;;;25.26;19.98;100608.28;4973979;28;20039;-52
2021/06/04 08:41:11;;;;;;;7.45;1.65;;;;;;;25.04;21.20;100606.44;4973703;28;20434;-52
2021/06/04 08:44:14;;;;;;;2.55;1.40;;;;;;;24.94;21.02;100612.28;4973410;28;20039;-52
2021/06/04 08:46:45;;;;;;;8.93;1.42;;;;;;;23.90;22.50;100584.34;4972561;28;20030;-53
2021/06/04 08:49:19;;;;;;;6.70;1.70;;;;;;;23.50;23.81;100583.88;4973592;28;20494;-53
2021/06/04 08:52:12;;;;;;;4.55;1.77;;;;;;;23.59;23.36;100585.44;4972899;28;20138;-58
2021/06/04 08:54:53;;;;;;;7.22;1.80;;;;;;;23.72;23.49;100581.19;4971270;28;20102;-49
2021/06/04 08:57:37;;;;;;;3.72;1.50;;;;;;;23.89;22.62;100579.94;4957102;28;20057;-56
2021/06/04 09:00:24;;;;;;;7.40;1.77;;;;;;;23.88;22.31;100564.56;4972220;28;20086;-52
2021/06/04 09:03:18;;;;;;;3.58;1.20;;;;;;;23.78;22.39;100574.94;4968939;28;20057;-56
2021/06/04 09:05:58;;;;;;;2.83;1.10;;;;;;;23.62;22.31;100565.91;4957648;28;20089;-55
2021/06/04 09:08:29;;;;;;;4.72;1.10;;;;;;;23.35;22.80;100560.13;4973061;28;20047;-53
2021/06/04 09:11:05;;;;;;;3.05;1.30;;;;;;;23.42;22.01;100570.31;4973319;28;20061;-52
2021/06/04 09:13:34;;;;;;;5.30;1.10;;;;;;;22.77;23.16;100503.44;4969380;28;20424;-57
2021/06/04 09:16:14;;;;;;;4.25;0.90;;;;;;;22.83;23.69;100506.44;4972186;28;20035;-55
2021/06/04 09:18:46;;;;;;;4.93;1.42;;;;;;;23.15;24.06;100553.53;4972684;28;20043;-53
2021/06/04 09:21:17;;;;;;;7.88;1.60;;;;;;;22.90;24.96;100570.19;4972980;28;20069;-55
2021/06/04 09:23:44;;;;;;;6.25;1.60;;;;;;;22.95;25.03;100545.91;4971904;28;20090;-53
2021/06/04 09:26:16;;;;;;;5.55;1.40;;;;;;;23.12;25.16;100549.31;4970910;28;20039;-52
2021/06/04 09:28:48;;;;;;;3.35;1.10;;;;;;;23.34;24.02;100522.91;4971822;28;20619;-56
2021/06/04 09:31:34;;;;;;;6.88;1.55;;;;;;;23.75;23.61;100542.53;4971455;28;20038;-53
2021/06/04 09:34:16;;;;;;;4.55;1.40;;;;;;;23.89;23.85;100538.03;4972002;28;20039;-52
2021/06/04 09:36:50;;;;;;;6.03;1.58;;;;;;;23.93;24.26;100523.78;4972315;28;20058;-52
2021/06/04 09:39:28;;;;;;;4.28;1.20;;;;;;;24.00;23.51;100540.28;4972324;28;20477;-53
2021/06/04 09:42:05;;;;;;;4.03;1.40;;;;;;;23.91;23.20;100512.22;4972465;28;20105;-52
2021/06/04 09:44:31;;;;;;;6.60;1.75;;;;;;;23.48;23.77;100446.56;4972066;28;20038;-55
2021/06/04 09:47:00;;;;;;;3.83;1.50;;;;;;;23.90;23.53;100510.53;4971172;28;20498;-52
2021/06/04 09:49:41;;;;;;;2.33;1.30;;;;;;;23.88;23.87;100523.53;4972164;28;20081;-52
2021/06/04 09:52:24;;;;;;;5.05;1.20;;;;;;;23.97;23.23;100507.81;4971851;28;20402;-52
2021/06/04 09:55:19;;;;;;;1.92;1.20;;;;;;;23.97;22.73;100509.72;4972080;28;20112;-52
2021/06/04 09:58:00;;;;;;;3.80;1.20;;;;;;;23.87;22.93;100508.19;4972105;28;20031;-51
2021/06/04 10:00:29;;;;;;;3.33;1.30;;;;;;;23.69;23.20;100510.50;4966366;28;20046;-51
2021/06/04 10:03:24;;;;;;;5.38;1.33;;;;;;;23.98;22.81;100495.84;4968817;28;20043;-50
2021/06/04 10:06:04;;;;;;;4.05;1.23;;;;;;;23.96;22.64;100491.63;4960762;28;20050;-50
2021/06/04 10:08:30;;;;;;;7.13;1.55;;;;;;;23.78;23.29;100495.66;4968530;28;20034;-52
2021/06/04 10:11:14;;;;;;;5.40;1.40;;;;;;;23.76;23.08;100484.06;4968771;28;20570;-54
2021/06/04 10:19:57;;;;;;;3.05;1.13;;;;;;;23.48;22.47;100471.19;4971234;28;20034;-51
2021/06/04 10:22:32;;;;;;;2.55;1.20;;;;;;;23.53;22.82;100474.16;4971996;28;20047;-51
2021/06/04 10:25:00;;;;;;;3.65;1.40;;;;;;;23.54;22.76;100475.03;4971058;28;20034;-49
2021/06/04 10:27:27;;;;;;;3.95;1.15;;;;;;;23.50;22.34;100474.56;4970716;28;20034;-52
2021/06/04 10:30:09;;;;;;;3.08;1.33;;;;;;;23.62;21.79;100464.78;4971500;28;20042;-53
2021/06/04 10:32:50;;;;;;;6.13;0.90;;;;;;;23.53;21.91;100457.75;4970619;28;20486;-52
2021/06/04 10:35:34;;;;;;;1.73;1.30;;;;;;;23.67;22.14;100477.88;4971340;28;20035;-49
2021/06/04 10:38:11;;;;;;;4.38;1.42;;;;;;;23.73;22.24;100470.81;4971196;28;20042;-54
2021/06/04 10:41:09;;;;;;;7.68;1.23;;;;;;;23.80;21.41;100450.69;4966427;28;20114;-55
2021/06/04 10:44:05;;;;;;;6.22;1.15;;;;;;;23.73;21.62;100451.66;4968430;28;20062;-54
2021/06/04 10:46:39;;;;;;;3.90;1.23;;;;;;;23.81;21.88;100446.06;4965999;28;20026;-48
2021/06/04 10:49:10;;;;;;;2.67;1.20;;;;;;;24.04;21.19;100454.09;4968591;28;20413;-53
2021/06/04 10:52:11;;;;;;;5.60;1.40;;;;;;;23.96;21.66;100450.59;4964045;28;20047;-53
2021/06/04 10:54:55;;;;;;;8.93;1.88;;;;;;;23.79;21.60;100448.13;4970786;28;20047;-54
2021/06/04 10:57:42;;;;;;;5.05;1.10;;;;;;;23.57;21.49;100428.19;4971639;28;20031;-52
2021/06/04 11:00:26;;;;;;;3.72;1.05;;;;;;;23.60;21.57;100431.34;4956589;28;20034;-54
2021/06/04 11:03:20;;;;;;;2.03;1.05;;;;;;;23.72;21.20;100439.03;4970751;28;20457;-51
2021/06/04 11:06:08;;;;;;;2.92;1.17;;;;;;;23.70;21.55;100446.59;4971496;28;20073;-49
2021/06/04 11:08:46;;;;;;;3.88;1.10;;;;;;;23.54;21.82;100437.59;4970880;28;20370;-54
2021/06/04 11:11:37;;;;;;;4.72;1.17;;;;;;;23.47;21.97;100429.31;4970789;28;20066;-52
2021/06/04 11:14:12;;;;;;;4.38;1.20;;;;;;;23.56;21.98;100438.25;4968995;28;20035;-54
2021/06/04 11:16:53;;;;;;;3.63;1.00;;;;;;;23.53;21.98;100426.88;4970943;28;20035;-51
2021/06/04 11:19:39;;;;;;;3.42;1.17;;;;;;;23.19;22.41;100374.59;4970610;28;20426;-51
2021/06/04 11:22:11;;;;;;;;;;;;;;;23.90;21.95;100425.75;4956690;28;20129;-57
2021/06/04 11:24:46;;;;;;;1.63;0.88;;;;;;;23.86;21.94;100440.84;4971141;28;19922;-55
2021/06/04 11:27:19;;;;;;;8.00;1.35;;;;;;;23.41;22.44;100408.25;4971212;28;20039;-57
2021/06/04 11:29:45;;;;;;;9.18;1.65;;;;;;;23.44;22.25;100396.09;4970341;28;20057;-51
2021/06/04 11:32:26;;;;;;;4.82;1.25;;;;;;;23.75;22.02;100422.25;4970578;28;20141;-51
2021/06/04 11:34:54;;;;;;;8.88;1.50;;;;;;;23.85;22.04;100414.53;4970587;28;20043;-56
2021/06/04 11:37:29;;;;;;;8.55;1.20;;;;;;;23.76;22.38;100393.84;4970726;28;20038;-54
2021/06/04 11:40:04;;;;;;;1.37;0.80;;;;;;;23.74;21.01;100347.56;4954202;28;20035;-55
2021/06/04 11:42:42;;;;;;;9.40;1.88;;;;;;;23.98;21.41;100411.06;4970864;28;20043;-54
2021/06/04 11:45:08;;;;;;;4.82;1.20;;;;;;;24.03;21.05;100418.72;4968423;28;20407;-54
2021/06/04 11:47:37;;;;;;;6.85;1.15;;;;;;;23.93;21.22;100389.81;4970957;28;20534;-55
2021/06/04 11:50:20;;;;;;;3.55;1.42;;;;;;;23.97;20.77;100408.53;4970282;28;20058;-54
2021/06/04 11:52:48;;;;;;;4.13;1.42;;;;;;;23.87;21.37;100406.16;4970947;28;20430;-52
2021/06/04 11:55:19;;;;;;;6.28;1.80;;;;;;;24.01;20.97;100413.47;4969891;28;20105;-55
2021/06/04 11:57:56;;;;;;;2.15;0.85;;;;;;;24.05;20.63;100394.75;4969810;28;20107;-49